Time;durP1;ratioP1;P1;durP2;ratioP2;P2;SDS_P1;SDS_P2;PMS_P1;PMS_P2;Temp;Humidity;BMP_temperature;BMP_pressure;BME280_temperature;BME280_humidity;BME280_pressure;Samples;Min_cycle;Max_cycle;Signal;HPM_P1;HPM_P2
2023/06/05 00:00:30;;;;;;;5.13;3.50;;;;;;;;;;5034385;28;20049;-82
2023/06/05 00:03:17;;;;;;;5.80;4.03;;;;;;;;;;5035516;28;20045;-84
2023/06/05 00:06:03;;;;;;;6.80;3.50;;;;;;;;;;5034222;28;20050;-85
2023/06/05 00:08:50;;;;;;;6.55;3.72;;;;;;;;;;5035820;28;20475;-85
2023/06/05 00:11:35;;;;;;;6.38;3.92;;;;;;;;;;5020253;28;20041;-86
2023/06/05 00:14:20;;;;;;;5.30;3.85;;;;;;;;;;5040017;28;20037;-82
2023/06/05 00:17:09;;;;;;;12.73;4.45;;;;;;;;;;5035151;28;20637;-86
2023/06/05 00:19:54;;;;;;;6.03;3.75;;;;;;;;;;5035708;28;20053;-82
2023/06/05 00:22:40;;;;;;;5.20;3.97;;;;;;;;;;5034971;28;20045;-86
2023/06/05 00:25:25;;;;;;;6.40;3.83;;;;;;;;;;5020005;28;20041;-82
2023/06/05 00:28:11;;;;;;;5.05;3.45;;;;;;;;;;5034990;28;20049;-84
2023/06/05 00:30:56;;;;;;;7.63;3.88;;;;;;;;;;5034474;28;20042;-84
2023/06/05 00:33:44;;;;;;;5.18;3.38;;;;;;;;;;5025460;28;20045;-83
2023/06/05 00:36:32;;;;;;;5.65;3.72;;;;;;;;;;5040174;28;20045;-84
2023/06/05 00:39:21;;;;;;;4.63;3.58;;;;;;;;;;5027216;28;20479;-82
2023/06/05 00:42:11;;;;;;;4.32;3.42;;;;;;;;;;5034602;28;20037;-82
2023/06/05 00:44:57;;;;;;;4.90;3.88;;;;;;;;;;5034170;28;20053;-82
2023/06/05 00:47:43;;;;;;;4.55;3.97;;;;;;;;;;5040251;28;20045;-82
2023/06/05 00:50:32;;;;;;;4.72;4.10;;;;;;;;;;5040111;28;20049;-84
2023/06/05 00:53:17;;;;;;;6.25;3.72;;;;;;;;;;5040593;28;20045;-82
2023/06/05 00:56:03;;;;;;;6.32;4.07;;;;;;;;;;5033882;28;20049;-84
2023/06/05 00:58:48;;;;;;;6.57;4.20;;;;;;;;;;5040139;28;20045;-84
2023/06/05 01:01:34;;;;;;;5.03;3.97;;;;;;;;;;5054126;28;20049;-84
2023/06/05 01:04:19;;;;;;;7.28;4.40;;;;;;;;;;5040024;28;20049;-85
2023/06/05 01:07:05;;;;;;;6.30;4.03;;;;;;;;;;5040304;28;20041;-85
2023/06/05 01:09:50;;;;;;;4.32;3.65;;;;;;;;;;5033997;28;20041;-83
2023/06/05 01:13:00;;;;;;;6.78;4.40;;;;;;;;;;5039491;28;20041;-85
2023/06/05 01:15:46;;;;;;;6.53;3.83;;;;;;;;;;5034327;28;20041;-83
2023/06/05 01:18:32;;;;;;;8.25;4.40;;;;;;;;;;5033876;28;20045;-85
2023/06/05 01:21:17;;;;;;;9.18;4.30;;;;;;;;;;5033977;28;20038;-83
2023/06/05 01:24:02;;;;;;;9.43;3.80;;;;;;;;;;5018601;28;20049;-85
2023/06/05 01:27:46;;;;;;;8.07;4.40;;;;;;;;;;5033604;28;20045;-83
2023/06/05 01:30:40;;;;;;;7.03;4.20;;;;;;;;;;4991865;28;20074;-84
2023/06/05 01:33:34;;;;;;;6.90;4.57;;;;;;;;;;4985199;28;20038;-83
2023/06/05 01:36:19;;;;;;;5.63;4.00;;;;;;;;;;5018175;28;20041;-83
2023/06/05 01:39:05;;;;;;;9.00;4.60;;;;;;;;;;5033846;28;20049;-84
2023/06/05 01:41:50;;;;;;;5.72;4.20;;;;;;;;;;5033937;28;20041;-85
2023/06/05 01:44:36;;;;;;;4.97;4.20;;;;;;;;;;5018128;28;20041;-83
2023/06/05 01:47:21;;;;;;;5.75;3.78;;;;;;;;;;5019011;28;20399;-85
2023/06/05 01:50:08;;;;;;;7.50;4.10;;;;;;;;;;5033642;28;20108;-83
2023/06/05 01:52:54;;;;;;;5.95;4.40;;;;;;;;;;5033516;28;20387;-85
2023/06/05 01:55:40;;;;;;;9.00;5.05;;;;;;;;;;5033415;28;20041;-83
2023/06/05 01:58:26;;;;;;;7.85;4.28;;;;;;;;;;5052873;28;20041;-85
2023/06/05 02:01:12;;;;;;;7.80;4.30;;;;;;;;;;5052981;28;20426;-84
2023/06/05 02:03:58;;;;;;;7.25;4.28;;;;;;;;;;5033210;28;20041;-83
2023/06/05 02:06:43;;;;;;;6.88;4.22;;;;;;;;;;5033447;28;20037;-84
2023/06/05 02:09:33;;;;;;;8.25;4.40;;;;;;;;;;5039520;28;20041;-83
2023/06/05 02:12:20;;;;;;;8.10;4.55;;;;;;;;;;5033220;28;20045;-83
2023/06/05 02:15:05;;;;;;;6.18;4.13;;;;;;;;;;5032051;28;20395;-84
2023/06/05 02:17:53;;;;;;;5.65;4.60;;;;;;;;;;5052955;28;20037;-83
2023/06/05 02:20:38;;;;;;;6.75;4.60;;;;;;;;;;5039514;28;20475;-84
2023/06/05 02:23:24;;;;;;;8.43;4.60;;;;;;;;;;5033241;28;20403;-84
2023/06/05 02:26:09;;;;;;;6.07;4.30;;;;;;;;;;5038558;28;20045;-84
2023/06/05 02:28:55;;;;;;;5.93;4.78;;;;;;;;;;5032971;28;20053;-84
2023/06/05 02:31:41;;;;;;;8.05;4.40;;;;;;;;;;5042948;28;20041;-85
2023/06/05 02:34:28;;;;;;;4.88;4.03;;;;;;;;;;5021926;28;20037;-84
2023/06/05 02:37:14;;;;;;;6.90;4.15;;;;;;;;;;5042766;28;20049;-84
2023/06/05 02:39:59;;;;;;;7.55;4.18;;;;;;;;;;5036871;28;20045;-84
2023/06/05 02:42:44;;;;;;;4.63;4.10;;;;;;;;;;5042563;28;20048;-84
2023/06/05 02:45:30;;;;;;;6.20;4.18;;;;;;;;;;5036257;28;20037;-84
2023/06/05 02:48:16;;;;;;;10.25;4.90;;;;;;;;;;5042488;28;20038;-86
2023/06/05 02:51:03;;;;;;;9.02;4.20;;;;;;;;;;5028760;28;20049;-85
2023/06/05 02:53:48;;;;;;;7.78;4.50;;;;;;;;;;5055922;28;20402;-85
2023/06/05 02:56:37;;;;;;;5.50;4.13;;;;;;;;;;5042434;28;20037;-85
2023/06/05 02:59:24;;;;;;;5.70;4.13;;;;;;;;;;5042718;28;20045;-84
2023/06/05 03:02:11;;;;;;;8.23;4.32;;;;;;;;;;5055965;28;20045;-84
2023/06/05 03:04:56;;;;;;;6.85;4.45;;;;;;;;;;5036850;28;20045;-86
2023/06/05 03:07:45;;;;;;;7.47;4.75;;;;;;;;;;5042019;28;20041;-86
2023/06/05 03:10:31;;;;;;;7.47;4.35;;;;;;;;;;5042098;28;20049;-84
2023/06/05 03:13:17;;;;;;;5.68;4.15;;;;;;;;;;5042353;28;20041;-85
2023/06/05 03:16:03;;;;;;;7.20;4.10;;;;;;;;;;5041712;28;20061;-85
2023/06/05 03:18:51;;;;;;;5.25;4.03;;;;;;;;;;5041698;28;20149;-83
2023/06/05 03:21:38;;;;;;;6.68;3.97;;;;;;;;;;5042210;28;20049;-82
2023/06/05 03:24:24;;;;;;;5.68;3.65;;;;;;;;;;5035350;28;20495;-83
2023/06/05 03:27:15;;;;;;;3.63;3.05;;;;;;;;;;5041773;28;20045;-84
2023/06/05 03:30:01;;;;;;;4.03;3.15;;;;;;;;;;5037466;28;20049;-85
2023/06/05 03:32:48;;;;;;;7.45;3.92;;;;;;;;;;5041680;28;20408;-85
2023/06/05 03:35:34;;;;;;;4.65;3.70;;;;;;;;;;5041486;28;20045;-84
2023/06/05 03:38:23;;;;;;;4.75;3.72;;;;;;;;;;5041659;28;20399;-82
2023/06/05 03:41:09;;;;;;;5.55;4.10;;;;;;;;;;5041444;28;20045;-85
2023/06/05 03:43:56;;;;;;;5.15;3.88;;;;;;;;;;5036104;28;20494;-83
2023/06/05 03:46:44;;;;;;;7.93;4.28;;;;;;;;;;5041178;28;20041;-84
2023/06/05 03:49:29;;;;;;;7.13;4.75;;;;;;;;;;5041208;28;20391;-83
2023/06/05 03:52:16;;;;;;;6.43;3.85;;;;;;;;;;5041021;28;20050;-84
2023/06/05 03:55:04;;;;;;;5.32;3.97;;;;;;;;;;5041531;28;20491;-84
2023/06/05 03:57:50;;;;;;;9.68;4.20;;;;;;;;;;5055148;28;20038;-84
2023/06/05 04:00:35;;;;;;;6.95;4.07;;;;;;;;;;5042018;28;20057;-85
2023/06/05 04:03:20;;;;;;;6.50;3.20;;;;;;;;;;5040706;28;20045;-84
2023/06/05 04:06:08;;;;;;;4.85;3.72;;;;;;;;;;5041360;28;20045;-84
2023/06/05 04:08:54;;;;;;;5.78;3.75;;;;;;;;;;5027154;28;20479;-84
2023/06/05 04:11:44;;;;;;;5.68;4.40;;;;;;;;;;5035238;28;20499;-83
2023/06/05 04:14:30;;;;;;;8.55;4.15;;;;;;;;;;5055203;28;20479;-85
2023/06/05 04:17:16;;;;;;;5.30;4.20;;;;;;;;;;5039750;28;20037;-84
2023/06/05 04:20:02;;;;;;;7.15;4.78;;;;;;;;;;5035370;28;20045;-84
2023/06/05 04:22:49;;;;;;;4.82;4.25;;;;;;;;;;5040973;28;20495;-83
2023/06/05 04:25:35;;;;;;;4.88;4.15;;;;;;;;;;5054443;28;20406;-84
2023/06/05 04:28:21;;;;;;;10.43;4.25;;;;;;;;;;5040134;28;20053;-85
2023/06/05 04:31:08;;;;;;;6.78;4.30;;;;;;;;;;5055030;28;20049;-83
2023/06/05 04:33:54;;;;;;;6.47;4.38;;;;;;;;;;5034941;28;20045;-84
2023/06/05 04:36:43;;;;;;;6.07;4.20;;;;;;;;;;5040107;28;20041;-85
2023/06/05 04:39:29;;;;;;;5.97;4.25;;;;;;;;;;5040554;28;20037;-84
2023/06/05 04:42:14;;;;;;;4.78;4.10;;;;;;;;;;5040133;28;20053;-85
2023/06/05 04:45:07;;;;;;;5.85;4.13;;;;;;;;;;5040835;28;20049;-85
2023/06/05 04:47:56;;;;;;;6.80;4.30;;;;;;;;;;5053863;28;20038;-85
2023/06/05 04:50:41;;;;;;;5.35;3.90;;;;;;;;;;5040406;28;20049;-82
2023/06/05 04:53:31;;;;;;;6.05;4.10;;;;;;;;;;5039859;28;20045;-83
2023/06/05 04:56:20;;;;;;;6.53;3.80;;;;;;;;;;5039777;28;20398;-85
2023/06/05 04:59:06;;;;;;;4.97;3.97;;;;;;;;;;5054361;28;20053;-83
2023/06/05 05:01:54;;;;;;;7.00;3.90;;;;;;;;;;5040545;28;20049;-83
2023/06/05 05:04:41;;;;;;;6.78;4.35;;;;;;;;;;5054009;28;20045;-83
2023/06/05 05:07:28;;;;;;;3.58;3.15;;;;;;;;;;5025388;28;20398;-83
2023/06/05 05:10:14;;;;;;;5.15;3.38;;;;;;;;;;5039786;28;20049;-83
2023/06/05 05:13:03;;;;;;;5.05;3.67;;;;;;;;;;5039476;28;20041;-84
2023/06/05 05:15:52;;;;;;;6.47;3.55;;;;;;;;;;5039688;28;20053;-83
2023/06/05 05:18:40;;;;;;;4.47;3.60;;;;;;;;;;5039561;28;20041;-84
2023/06/05 05:21:26;;;;;;;4.60;3.30;;;;;;;;;;5039188;28;20049;-84
2023/06/05 05:24:12;;;;;;;5.18;3.15;;;;;;;;;;5039719;28;20041;-84
2023/06/05 05:26:57;;;;;;;6.93;3.67;;;;;;;;;;5053632;28;20045;-84
2023/06/05 05:29:42;;;;;;;4.00;3.08;;;;;;;;;;5018493;28;20049;-84
2023/06/05 05:32:28;;;;;;;6.38;3.65;;;;;;;;;;5039455;28;20421;-85
2023/06/05 05:35:12;;;;;;;4.75;3.05;;;;;;;;;;5039209;28;20045;-84
2023/06/05 05:37:59;;;;;;;6.43;3.63;;;;;;;;;;5031966;28;20034;-83
2023/06/05 05:40:44;;;;;;;5.68;3.60;;;;;;;;;;5034138;28;20050;-83
2023/06/05 05:43:30;;;;;;;7.95;4.18;;;;;;;;;;5018301;28;20045;-82
2023/06/05 05:46:15;;;;;;;7.32;4.22;;;;;;;;;;5038635;28;20045;-86
2023/06/05 05:49:01;;;;;;;9.75;4.68;;;;;;;;;;5032437;28;20053;-87
2023/06/05 05:51:46;;;;;;;4.78;4.18;;;;;;;;;;5039020;28;20053;-84
2023/06/05 05:54:32;;;;;;;8.50;3.95;;;;;;;;;;5025161;28;20045;-84
2023/06/05 05:57:17;;;;;;;9.20;3.63;;;;;;;;;;5018453;28;20418;-84
2023/06/05 06:00:09;;;;;;;5.05;3.60;;;;;;;;;;5039050;28;20045;-84
2023/06/05 06:02:57;;;;;;;6.20;3.67;;;;;;;;;;5032039;28;20403;-85
2023/06/05 06:05:42;;;;;;;4.07;3.45;;;;;;;;;;5032630;28;20049;-85
2023/06/05 06:08:28;;;;;;;6.15;3.38;;;;;;;;;;5038613;28;20049;-83
2023/06/05 06:11:16;;;;;;;5.38;3.47;;;;;;;;;;5053672;28;20053;-84
2023/06/05 06:14:02;;;;;;;4.65;2.90;;;;;;;;;;5046897;28;20045;-82
2023/06/05 06:16:48;;;;;;;5.65;2.97;;;;;;;;;;5033586;28;20045;-83
2023/06/05 06:19:33;;;;;;;3.88;3.10;;;;;;;;;;5037406;28;20049;-83
2023/06/05 06:22:19;;;;;;;3.97;3.28;;;;;;;;;;5033124;28;20476;-85
2023/06/05 06:25:04;;;;;;;3.72;3.00;;;;;;;;;;5032422;28;20050;-84
2023/06/05 06:27:53;;;;;;;4.88;3.33;;;;;;;;;;5032918;28;20398;-85
2023/06/05 06:30:38;;;;;;;5.65;3.72;;;;;;;;;;5025880;28;20507;-85
2023/06/05 06:33:29;;;;;;;4.35;3.53;;;;;;;;;;5013499;28;20038;-85
2023/06/05 06:36:13;;;;;;;5.90;4.22;;;;;;;;;;5018081;28;20042;-85
2023/06/05 06:38:58;;;;;;;5.90;3.90;;;;;;;;;;5013125;28;20046;-84
2023/06/05 06:41:44;;;;;;;4.47;3.75;;;;;;;;;;5013759;28;20045;-86
2023/06/05 06:44:29;;;;;;;5.47;4.28;;;;;;;;;;5012696;28;20054;-84
2023/06/05 06:47:17;;;;;;;7.07;4.72;;;;;;;;;;5012782;28;20050;-84
2023/06/05 06:50:02;;;;;;;8.43;4.63;;;;;;;;;;5026109;28;20042;-84
2023/06/05 06:52:48;;;;;;;7.72;4.70;;;;;;;;;;4998663;28;20495;-85
2023/06/05 06:55:34;;;;;;;7.90;4.85;;;;;;;;;;5019424;28;20388;-85
2023/06/05 06:58:19;;;;;;;7.15;4.50;;;;;;;;;;5018203;28;20037;-84
2023/06/05 07:01:05;;;;;;;6.57;4.32;;;;;;;;;;5011344;28;20575;-85
2023/06/05 07:03:50;;;;;;;6.35;4.22;;;;;;;;;;5011370;28;20042;-84
2023/06/05 07:06:36;;;;;;;9.80;4.50;;;;;;;;;;5016608;28;20045;-85
2023/06/05 07:09:21;;;;;;;6.72;4.10;;;;;;;;;;5011331;28;20046;-84
2023/06/05 07:12:12;;;;;;;5.57;4.22;;;;;;;;;;5011702;28;20053;-84
2023/06/05 07:14:58;;;;;;;7.82;4.13;;;;;;;;;;5012893;28;20038;-83
2023/06/05 07:17:43;;;;;;;5.50;3.97;;;;;;;;;;5016984;28;20042;-83
2023/06/05 07:20:29;;;;;;;8.68;3.80;;;;;;;;;;5022417;28;20038;-84
2023/06/05 07:23:14;;;;;;;4.63;4.07;;;;;;;;;;5029714;28;20054;-84
2023/06/05 07:26:01;;;;;;;5.88;4.03;;;;;;;;;;5029508;28;20045;-85
2023/06/05 07:28:46;;;;;;;8.68;4.25;;;;;;;;;;5022042;28;20041;-88
2023/06/05 07:31:33;;;;;;;4.55;3.90;;;;;;;;;;5016496;28;20396;-85
2023/06/05 07:34:20;;;;;;;5.90;3.50;;;;;;;;;;5016908;28;20463;-87
2023/06/05 07:37:07;;;;;;;5.85;4.10;;;;;;;;;;5016670;28;20045;-86
2023/06/05 07:39:53;;;;;;;5.03;3.58;;;;;;;;;;5015593;28;20053;-87
2023/06/05 07:42:38;;;;;;;6.20;3.33;;;;;;;;;;5008308;28;20054;-86
2023/06/05 07:45:25;;;;;;;3.65;3.25;;;;;;;;;;5016774;28;20399;-86
2023/06/05 07:48:10;;;;;;;8.25;3.25;;;;;;;;;;5028993;28;20484;-88
2023/06/05 07:50:55;;;;;;;7.32;3.50;;;;;;;;;;5021875;28;20045;-87
2023/06/05 07:53:43;;;;;;;5.40;3.28;;;;;;;;;;5016719;28;20046;-88
2023/06/05 07:56:31;;;;;;;7.40;3.65;;;;;;;;;;5001679;28;20495;-87
2023/06/05 07:59:24;;;;;;;4.47;3.42;;;;;;;;;;5013541;28;20038;-87
2023/06/05 08:02:12;;;;;;;4.40;3.25;;;;;;;;;;5021642;28;20046;-87
2023/06/05 08:04:58;;;;;;;4.60;3.80;;;;;;;;;;5035782;28;20041;-88
2023/06/05 08:07:46;;;;;;;5.40;3.60;;;;;;;;;;5028758;28;20046;-88
2023/06/05 08:10:31;;;;;;;6.47;3.83;;;;;;;;;;5001222;28;20049;-87
2023/06/05 08:13:17;;;;;;;4.20;3.67;;;;;;;;;;5000999;28;20050;-87
2023/06/05 08:16:03;;;;;;;5.18;3.63;;;;;;;;;;5015638;28;20395;-87
2023/06/05 08:18:48;;;;;;;4.05;3.60;;;;;;;;;;5021539;28;20474;-87
2023/06/05 08:21:36;;;;;;;5.93;4.60;;;;;;;;;;5028465;28;20046;-83
2023/06/05 08:24:23;;;;;;;22.10;10.27;;;;;;;;;;5008045;28;20053;-85
2023/06/05 08:27:08;;;;;;;21.20;9.90;;;;;;;;;;5026677;28;20042;-83
2023/06/05 08:29:54;;;;;;;16.48;9.32;;;;;;;;;;5017339;28;20420;-85
2023/06/05 08:32:40;;;;;;;8.57;4.40;;;;;;;;;;5028188;28;20487;-85
2023/06/05 08:35:26;;;;;;;9.10;5.43;;;;;;;;;;5021047;28;20053;-85
2023/06/05 08:38:11;;;;;;;8.45;5.60;;;;;;;;;;5015629;28;20041;-85
2023/06/05 08:41:02;;;;;;;21.08;12.98;;;;;;;;;;5015497;28;20050;-83
2023/06/05 08:43:47;;;;;;;7.70;4.30;;;;;;;;;;5020814;28;20038;-84
2023/06/05 08:46:36;;;;;;;66.15;33.05;;;;;;;;;;5028114;28;20038;-84
2023/06/05 08:49:25;;;;;;;11.13;5.72;;;;;;;;;;5007660;28;20046;-85
2023/06/05 08:52:14;;;;;;;6.25;4.75;;;;;;;;;;5020477;28;20050;-85
2023/06/05 08:54:59;;;;;;;10.82;4.32;;;;;;;;;;5014175;28;20046;-83
2023/06/05 08:57:44;;;;;;;8.52;5.55;;;;;;;;;;5020753;28;20049;-84
2023/06/05 09:00:30;;;;;;;6.82;4.20;;;;;;;;;;5008455;28;20038;-84
2023/06/05 09:03:18;;;;;;;8.85;5.13;;;;;;;;;;5020811;28;20073;-86
2023/06/05 09:06:04;;;;;;;6.78;4.25;;;;;;;;;;5034192;28;20484;-82
2023/06/05 09:08:50;;;;;;;6.30;4.60;;;;;;;;;;5014806;28;20042;-82
2023/06/05 09:11:36;;;;;;;8.18;5.53;;;;;;;;;;5008881;28;20495;-82
2023/06/05 09:14:26;;;;;;;55.63;26.88;;;;;;;;;;5014881;28;20050;-84
2023/06/05 09:17:13;;;;;;;8.93;5.28;;;;;;;;;;5015035;28;20041;-83
2023/06/05 09:20:02;;;;;;;19.95;12.00;;;;;;;;;;5014713;28;20046;-82
2023/06/05 09:22:48;;;;;;;8.13;5.03;;;;;;;;;;5014797;28;20050;-80
2023/06/05 09:25:47;;;;;;;38.67;19.95;;;;;;;;;;5008534;28;20045;-82
2023/06/05 09:28:33;;;;;;;8.43;6.45;;;;;;;;;;5015193;28;20038;-81
2023/06/05 09:31:18;;;;;;;11.25;6.30;;;;;;;;;;5015137;28;20037;-84
2023/06/05 09:34:04;;;;;;;6.90;5.28;;;;;;;;;;5015056;28;20045;-79
2023/06/05 09:36:50;;;;;;;19.50;11.32;;;;;;;;;;5014357;28;20045;-79
2023/06/05 09:39:36;;;;;;;9.45;6.20;;;;;;;;;;5015525;28;20046;-79
2023/06/05 09:42:32;;;;;;;14.45;9.43;;;;;;;;;;5014879;28;20046;-85
2023/06/05 09:45:17;;;;;;;6.50;4.75;;;;;;;;;;5013965;28;20045;-84
2023/06/05 09:48:14;;;;;;;8.45;4.80;;;;;;;;;;5013790;28;20396;-84
2023/06/05 09:51:13;;;;;;;8.32;4.78;;;;;;;;;;5019544;28;20041;-79
2023/06/05 09:53:59;;;;;;;7.93;5.70;;;;;;;;;;5014029;28;20057;-79
2023/06/05 09:56:49;;;;;;;8.27;5.07;;;;;;;;;;5014210;28;20042;-81
2023/06/05 09:59:45;;;;;;;6.13;4.50;;;;;;;;;;5015135;28;20038;-86
2023/06/05 10:02:35;;;;;;;8.27;5.13;;;;;;;;;;5027079;28;20487;-86
2023/06/05 10:05:23;;;;;;;4.93;3.72;;;;;;;;;;5012188;28;20042;-87
2023/06/05 10:08:17;;;;;;;7.70;4.32;;;;;;;;;;5019217;28;20050;-88
2023/06/05 10:11:13;;;;;;;6.95;4.55;;;;;;;;;;5007944;28;20049;-92
2023/06/05 10:14:04;;;;;;;6.63;4.70;;;;;;;;;;5021543;28;20050;-91
2023/06/05 10:16:54;;;;;;;7.85;5.00;;;;;;;;;;5013579;28;20046;-81
2023/06/05 10:19:42;;;;;;;6.97;4.57;;;;;;;;;;4999218;28;20391;-80
2023/06/05 10:22:28;;;;;;;5.72;4.72;;;;;;;;;;5013647;28;20105;-80
2023/06/05 10:25:16;;;;;;;5.93;3.92;;;;;;;;;;5013934;28;20037;-80
2023/06/05 10:28:34;;;;;;;8.02;4.80;;;;;;;;;;5013705;28;20050;-83
2023/06/05 10:31:26;;;;;;;6.03;4.43;;;;;;;;;;5014683;28;20041;-82
2023/06/05 10:34:10;;;;;;;6.45;4.50;;;;;;;;;;5013671;28;20045;-82
2023/06/05 10:37:30;;;;;;;7.72;4.30;;;;;;;;;;5013075;28;20427;-80
2023/06/05 10:40:16;;;;;;;7.10;4.40;;;;;;;;;;5013585;28;20042;-82
2023/06/05 10:43:23;;;;;;;5.65;5.03;;;;;;;;;;5013469;28;20050;-82
2023/06/05 10:46:32;;;;;;;6.57;4.00;;;;;;;;;;5013492;28;20042;-81
2023/06/05 10:49:20;;;;;;;7.63;4.95;;;;;;;;;;5013311;28;20622;-83
2023/06/05 10:52:35;;;;;;;6.00;4.03;;;;;;;;;;5017009;28;20411;-81
2023/06/05 10:55:23;;;;;;;5.80;4.47;;;;;;;;;;5017812;28;20045;-81
2023/06/05 10:58:15;;;;;;;6.00;3.95;;;;;;;;;;5009058;28;20042;-90
2023/06/05 11:01:16;;;;;;;8.13;4.35;;;;;;;;;;5009566;28;20427;-89
2023/06/05 11:04:02;;;;;;;7.38;4.57;;;;;;;;;;5024572;28;20053;-90
2023/06/05 11:07:18;;;;;;;9.10;4.40;;;;;;;;;;5029923;28;20037;-92
2023/06/05 11:10:22;;;;;;;6.40;4.55;;;;;;;;;;5024191;28;20049;-90
2023/06/05 11:13:10;;;;;;;6.80;4.70;;;;;;;;;;5009153;28;20033;-89
2023/06/05 11:15:56;;;;;;;5.75;4.90;;;;;;;;;;5023904;28;20054;-88
2023/06/05 11:18:41;;;;;;;6.43;4.80;;;;;;;;;;5043674;28;20042;-91
2023/06/05 11:22:08;;;;;;;6.53;5.03;;;;;;;;;;5023073;28;20041;-87
2023/06/05 11:25:13;;;;;;;5.90;4.28;;;;;;;;;;5022449;28;20034;-88
2023/06/05 11:28:05;;;;;;;6.20;4.85;;;;;;;;;;5016695;28;20049;-89
2023/06/05 11:31:00;;;;;;;6.38;4.90;;;;;;;;;;4997427;28;20042;-89
2023/06/05 11:33:48;;;;;;;5.40;4.15;;;;;;;;;;5016541;28;20399;-85
2023/06/05 11:36:40;;;;;;;5.30;3.95;;;;;;;;;;5005127;28;20050;-90
2023/06/05 11:39:42;;;;;;;8.18;5.50;;;;;;;;;;4988843;28;20412;-80
2023/06/05 11:42:45;;;;;;;6.38;4.40;;;;;;;;;;4996772;28;20046;-91
2023/06/05 11:46:12;;;;;;;8.30;3.95;;;;;;;;;;5016707;28;20046;-85
2023/06/05 11:49:31;;;;;;;4.90;4.03;;;;;;;;;;4988028;28;20046;-89
2023/06/05 11:52:47;;;;;;;;;;;;;;;;;;;;;
2023/06/05 11:56:05;;;;;;;8.80;4.72;;;;;;;;;;4996537;28;20042;-89
2023/06/05 11:59:13;;;;;;;8.88;4.82;;;;;;;;;;5008776;28;20492;-91
2023/06/05 12:02:08;;;;;;;7.03;4.45;;;;;;;;;;5002202;28;20047;-86
2023/06/05 12:04:56;;;;;;;4.55;3.70;;;;;;;;;;4996697;28;20046;-87
2023/06/05 12:07:42;;;;;;;5.45;4.00;;;;;;;;;;5000075;28;20384;-91
2023/06/05 12:11:08;;;;;;;8.70;4.60;;;;;;;;;;5003946;28;20050;-91
2023/06/05 12:17:14;;;;;;;7.85;4.57;;;;;;;;;;4980900;28;20047;-89
2023/06/05 12:20:06;;;;;;;8.70;5.00;;;;;;;;;;4996528;28;20042;-89
2023/06/05 12:23:05;;;;;;;6.97;4.30;;;;;;;;;;5001573;28;20046;-92
2023/06/05 12:26:29;;;;;;;5.38;4.22;;;;;;;;;;5001749;28;20388;-91
2023/06/05 12:29:17;;;;;;;5.75;4.30;;;;;;;;;;4994606;28;20049;-88
2023/06/05 12:32:25;;;;;;;7.60;4.10;;;;;;;;;;5015061;28;20045;-84
2023/06/05 12:35:21;;;;;;;17.23;8.43;;;;;;;;;;5021154;28;20403;-86
2023/06/05 12:38:08;;;;;;;8.13;5.70;;;;;;;;;;5021411;28;20104;-85
2023/06/05 12:40:53;;;;;;;5.53;4.18;;;;;;;;;;5015143;28;20053;-86
2023/06/05 12:43:38;;;;;;;6.38;4.03;;;;;;;;;;5015491;28;20499;-82
2023/06/05 12:46:24;;;;;;;13.18;4.22;;;;;;;;;;5014039;28;20042;-79
2023/06/05 12:49:11;;;;;;;8.25;5.15;;;;;;;;;;5014792;28;20042;-85
2023/06/05 12:51:57;;;;;;;7.68;4.00;;;;;;;;;;4998892;28;20221;-86
2023/06/05 12:54:42;;;;;;;4.55;3.67;;;;;;;;;;5020787;28;20054;-85
2023/06/05 12:57:28;;;;;;;6.47;4.25;;;;;;;;;;5015081;28;20049;-85
2023/06/05 13:00:16;;;;;;;7.30;3.63;;;;;;;;;;5014073;28;20045;-86
2023/06/05 13:03:03;;;;;;;9.82;4.00;;;;;;;;;;5014895;28;20049;-86
2023/06/05 13:05:48;;;;;;;4.45;3.67;;;;;;;;;;5014016;28;20496;-86
2023/06/05 13:08:33;;;;;;;4.57;3.67;;;;;;;;;;5014031;28;20045;-82
2023/06/05 13:11:19;;;;;;;4.78;3.47;;;;;;;;;;5014805;28;20045;-82
2023/06/05 13:14:05;;;;;;;4.70;3.95;;;;;;;;;;5014494;28;20037;-81
2023/06/05 13:16:50;;;;;;;5.90;4.20;;;;;;;;;;5013172;28;20045;-80
2023/06/05 13:19:35;;;;;;;6.80;4.68;;;;;;;;;;5014242;28;20046;-82
2023/06/05 13:22:21;;;;;;;4.95;4.10;;;;;;;;;;5014249;28;20042;-81
2023/06/05 13:25:07;;;;;;;9.32;4.65;;;;;;;;;;5014317;28;20050;-83
2023/06/05 13:27:53;;;;;;;6.93;4.50;;;;;;;;;;5014570;28;20054;-83
2023/06/05 13:30:38;;;;;;;7.30;4.43;;;;;;;;;;5013972;28;20041;-86
2023/06/05 13:33:24;;;;;;;6.95;4.80;;;;;;;;;;5019902;28;20041;-85
2023/06/05 13:36:09;;;;;;;8.48;4.57;;;;;;;;;;5014770;28;20045;-84
2023/06/05 13:38:55;;;;;;;6.78;4.53;;;;;;;;;;5019934;28;20037;-83
2023/06/05 13:41:41;;;;;;;9.90;4.80;;;;;;;;;;5019359;28;20050;-83
2023/06/05 13:44:26;;;;;;;5.57;4.05;;;;;;;;;;5013660;28;20042;-85
2023/06/05 13:47:12;;;;;;;11.40;4.03;;;;;;;;;;5019774;28;20050;-81
2023/06/05 13:49:57;;;;;;;6.97;4.93;;;;;;;;;;5013460;28;20037;-81
2023/06/05 13:52:43;;;;;;;6.45;4.32;;;;;;;;;;5019563;28;20046;-80
2023/06/05 13:55:27;;;;;;;12.32;6.38;;;;;;;;;;5013990;28;20049;-81
2023/06/05 13:58:13;;;;;;;9.73;4.85;;;;;;;;;;5013870;28;20491;-84
2023/06/05 14:01:00;;;;;;;8.40;4.78;;;;;;;;;;5013038;28;20054;-82
2023/06/05 14:03:47;;;;;;;6.55;4.85;;;;;;;;;;5014213;28;20423;-81
2023/06/05 14:06:37;;;;;;;7.07;4.25;;;;;;;;;;5013688;28;20042;-80
2023/06/05 14:09:27;;;;;;;6.97;4.68;;;;;;;;;;5013917;28;20046;-82
2023/06/05 14:12:12;;;;;;;9.60;5.80;;;;;;;;;;5033293;28;20046;-82
2023/06/05 14:14:57;;;;;;;10.00;5.57;;;;;;;;;;5018960;28;20054;-82
2023/06/05 14:17:43;;;;;;;8.68;5.07;;;;;;;;;;5013875;28;20041;-79
2023/06/05 14:20:29;;;;;;;7.80;5.00;;;;;;;;;;5013634;28;20423;-80
2023/06/05 14:23:22;;;;;;;7.63;4.90;;;;;;;;;;5014366;28;20041;-81
2023/06/05 14:26:13;;;;;;;9.63;5.28;;;;;;;;;;5016390;28;20054;-80
2023/06/05 14:28:59;;;;;;;6.43;5.00;;;;;;;;;;5018386;28;20164;-92
2023/06/05 14:31:44;;;;;;;9.52;6.00;;;;;;;;;;5016202;28;20046;-86
2023/06/05 14:34:30;;;;;;;7.25;5.18;;;;;;;;;;5017389;28;20038;-88
2023/06/05 14:37:15;;;;;;;7.07;5.28;;;;;;;;;;5018032;28;20407;-84
2023/06/05 14:40:01;;;;;;;6.70;5.32;;;;;;;;;;5017914;28;20046;-83
2023/06/05 14:42:46;;;;;;;7.53;5.93;;;;;;;;;;5023323;28;20042;-83
2023/06/05 14:45:32;;;;;;;7.65;5.85;;;;;;;;;;5002846;28;20064;-83
2023/06/05 14:48:17;;;;;;;13.10;6.95;;;;;;;;;;5017580;28;20041;-83
2023/06/05 14:51:03;;;;;;;6.47;5.53;;;;;;;;;;5023313;28;20049;-84
2023/06/05 14:53:49;;;;;;;7.60;5.28;;;;;;;;;;5017338;28;20042;-87
2023/06/05 14:56:38;;;;;;;7.22;5.50;;;;;;;;;;5022285;28;20045;-90
2023/06/05 14:59:23;;;;;;;9.77;6.13;;;;;;;;;;5036184;28;20038;-83
2023/06/05 15:02:11;;;;;;;6.97;5.53;;;;;;;;;;5030087;28;20050;-82
2023/06/05 15:05:05;;;;;;;9.27;6.10;;;;;;;;;;5022150;28;20480;-87
2023/06/05 15:07:58;;;;;;;9.38;5.95;;;;;;;;;;5022876;28;20037;-89
2023/06/05 15:10:52;;;;;;;13.65;6.57;;;;;;;;;;5022662;28;20487;-83
2023/06/05 15:13:45;;;;;;;9.93;4.70;;;;;;;;;;5036446;28;20057;-86
2023/06/05 15:16:41;;;;;;;4.93;4.10;;;;;;;;;;5029001;28;20045;-82
2023/06/05 15:19:34;;;;;;;4.88;3.72;;;;;;;;;;5017162;28;20049;-88
2023/06/05 15:22:19;;;;;;;5.10;3.95;;;;;;;;;;5021625;28;20049;-83
2023/06/05 15:25:04;;;;;;;4.70;3.83;;;;;;;;;;5015892;28;20423;-87
2023/06/05 15:27:51;;;;;;;7.40;3.78;;;;;;;;;;5016899;28;20045;-86
2023/06/05 15:30:36;;;;;;;7.47;4.03;;;;;;;;;;5000471;28;20054;-88
2023/06/05 15:33:22;;;;;;;4.32;3.78;;;;;;;;;;4996374;28;20050;-84
2023/06/05 15:36:07;;;;;;;5.63;4.30;;;;;;;;;;4996602;28;20516;-87
2023/06/05 15:38:53;;;;;;;12.23;4.85;;;;;;;;;;4996830;28;20034;-85
2023/06/05 15:41:39;;;;;;;6.10;4.72;;;;;;;;;;4996874;28;20488;-84
2023/06/05 15:44:25;;;;;;;7.03;4.25;;;;;;;;;;4994841;28;20404;-84
2023/06/05 15:47:11;;;;;;;10.75;4.50;;;;;;;;;;5015203;28;20069;-86
2023/06/05 15:49:56;;;;;;;7.63;4.60;;;;;;;;;;4995400;28;20050;-88
2023/06/05 15:52:42;;;;;;;7.78;4.43;;;;;;;;;;4995893;28;20054;-84
2023/06/05 15:55:27;;;;;;;7.72;4.68;;;;;;;;;;4996181;28;20050;-87
2023/06/05 15:58:13;;;;;;;7.05;4.47;;;;;;;;;;5001487;28;20050;-87
2023/06/05 16:00:59;;;;;;;6.28;4.25;;;;;;;;;;4995426;28;20404;-87
2023/06/05 16:03:44;;;;;;;9.00;4.35;;;;;;;;;;5008653;28;20054;-85
2023/06/05 16:06:30;;;;;;;6.22;4.30;;;;;;;;;;4996271;28;20476;-86
2023/06/05 16:09:15;;;;;;;5.97;4.05;;;;;;;;;;5015575;28;20046;-86
2023/06/05 16:12:02;;;;;;;8.80;4.85;;;;;;;;;;4995972;28;20054;-82
2023/06/05 16:14:48;;;;;;;7.93;4.50;;;;;;;;;;4996627;28;20046;-80
2023/06/05 16:17:33;;;;;;;5.50;4.25;;;;;;;;;;4996014;28;20400;-83
2023/06/05 16:20:19;;;;;;;6.30;4.53;;;;;;;;;;5008941;28;20042;-80
2023/06/05 16:23:05;;;;;;;7.30;4.15;;;;;;;;;;4996050;28;20050;-84
2023/06/05 16:25:49;;;;;;;5.25;4.20;;;;;;;;;;5008987;28;20054;-83
2023/06/05 16:28:35;;;;;;;7.03;4.40;;;;;;;;;;5014213;28;20042;-82
2023/06/05 16:31:20;;;;;;;6.82;4.55;;;;;;;;;;5015531;28;20050;-86
2023/06/05 16:34:11;;;;;;;6.78;3.92;;;;;;;;;;5015465;28;20049;-89
2023/06/05 16:36:56;;;;;;;10.48;4.70;;;;;;;;;;5013364;28;20042;-86
2023/06/05 16:39:44;;;;;;;6.18;4.28;;;;;;;;;;5012268;28;20468;-84
2023/06/05 16:42:29;;;;;;;5.85;4.50;;;;;;;;;;5014345;28;20073;-87
2023/06/05 16:45:15;;;;;;;7.65;5.07;;;;;;;;;;5034023;28;20046;-86
2023/06/05 16:48:00;;;;;;;6.20;4.43;;;;;;;;;;5013803;28;20038;-85
2023/06/05 16:50:50;;;;;;;6.95;4.88;;;;;;;;;;5014370;28;20388;-89
2023/06/05 16:53:35;;;;;;;6.05;4.10;;;;;;;;;;5020392;28;20046;-87